sensor_id;sensor_type;location;lat;lon;timestamp;temperature;humidity
16970;DHT22;8601;48.718;8.992;2023-04-23T00:01:51;13.00;93.40
16970;DHT22;8601;48.718;8.992;2023-04-23T00:04:20;13.00;93.20
16970;DHT22;8601;48.718;8.992;2023-04-23T00:06:48;13.00;93.20
16970;DHT22;8601;48.718;8.992;2023-04-23T00:09:17;13.00;93.40
16970;DHT22;8601;48.718;8.992;2023-04-23T00:11:45;13.00;93.50
16970;DHT22;8601;48.718;8.992;2023-04-23T00:14:12;12.90;93.40
16970;DHT22;8601;48.718;8.992;2023-04-23T00:16:41;13.00;93.80
16970;DHT22;8601;48.718;8.992;2023-04-23T00:19:07;12.90;93.70
16970;DHT22;8601;48.718;8.992;2023-04-23T00:21:34;12.90;93.80
16970;DHT22;8601;48.718;8.992;2023-04-23T00:24:01;12.90;93.70
16970;DHT22;8601;48.718;8.992;2023-04-23T00:26:30;12.90;93.60
16970;DHT22;8601;48.718;8.992;2023-04-23T00:28:57;12.90;93.80
16970;DHT22;8601;48.718;8.992;2023-04-23T00:31:24;12.90;93.90
16970;DHT22;8601;48.718;8.992;2023-04-23T00:33:52;12.90;93.90
16970;DHT22;8601;48.718;8.992;2023-04-23T00:36:19;12.90;94.00
16970;DHT22;8601;48.718;8.992;2023-04-23T00:38:46;12.90;94.00
16970;DHT22;8601;48.718;8.992;2023-04-23T00:41:13;12.80;94.10
16970;DHT22;8601;48.718;8.992;2023-04-23T00:43:42;12.80;94.10
16970;DHT22;8601;48.718;8.992;2023-04-23T00:46:10;12.80;94.20
16970;DHT22;8601;48.718;8.992;2023-04-23T00:48:37;12.80;94.40
16970;DHT22;8601;48.718;8.992;2023-04-23T00:51:05;12.80;94.60
16970;DHT22;8601;48.718;8.992;2023-04-23T00:53:32;12.80;94.80
16970;DHT22;8601;48.718;8.992;2023-04-23T00:56:01;12.70;94.90
16970;DHT22;8601;48.718;8.992;2023-04-23T00:58:30;12.70;95.00
16970;DHT22;8601;48.718;8.992;2023-04-23T01:00:59;12.70;95.20
16970;DHT22;8601;48.718;8.992;2023-04-23T01:03:29;12.60;95.30
16970;DHT22;8601;48.718;8.992;2023-04-23T01:05:57;12.60;95.40
16970;DHT22;8601;48.718;8.992;2023-04-23T01:08:24;12.60;95.60
16970;DHT22;8601;48.718;8.992;2023-04-23T01:10:52;12.60;96.00
16970;DHT22;8601;48.718;8.992;2023-04-23T01:13:19;12.60;96.10
16970;DHT22;8601;48.718;8.992;2023-04-23T01:15:47;12.50;96.00
16970;DHT22;8601;48.718;8.992;2023-04-23T01:18:16;12.50;96.40
16970;DHT22;8601;48.718;8.992;2023-04-23T01:20:44;12.50;96.40
16970;DHT22;8601;48.718;8.992;2023-04-23T01:23:13;12.40;96.70
16970;DHT22;8601;48.718;8.992;2023-04-23T01:25:39;12.30;96.80
16970;DHT22;8601;48.718;8.992;2023-04-23T01:28:07;12.30;97.00
16970;DHT22;8601;48.718;8.992;2023-04-23T01:30:36;12.30;97.00
16970;DHT22;8601;48.718;8.992;2023-04-23T01:33:04;12.30;97.40
16970;DHT22;8601;48.718;8.992;2023-04-23T01:35:32;12.20;97.30
16970;DHT22;8601;48.718;8.992;2023-04-23T01:38:02;12.20;97.90
16970;DHT22;8601;48.718;8.992;2023-04-23T01:40:30;12.20;97.70
16970;DHT22;8601;48.718;8.992;2023-04-23T01:42:57;12.10;97.70
16970;DHT22;8601;48.718;8.992;2023-04-23T01:45:24;12.20;98.00
16970;DHT22;8601;48.718;8.992;2023-04-23T01:47:52;12.10;98.30
16970;DHT22;8601;48.718;8.992;2023-04-23T01:50:19;12.10;98.40
16970;DHT22;8601;48.718;8.992;2023-04-23T01:52:47;12.00;98.80
16970;DHT22;8601;48.718;8.992;2023-04-23T01:55:14;12.00;98.60
16970;DHT22;8601;48.718;8.992;2023-04-23T01:57:45;12.00;98.80
16970;DHT22;8601;48.718;8.992;2023-04-23T02:00:14;12.10;99.10
16970;DHT22;8601;48.718;8.992;2023-04-23T02:02:42;12.00;99.30
16970;DHT22;8601;48.718;8.992;2023-04-23T02:05:11;12.00;99.20
16970;DHT22;8601;48.718;8.992;2023-04-23T02:07:38;12.00;99.40
16970;DHT22;8601;48.718;8.992;2023-04-23T02:10:06;12.00;99.70
16970;DHT22;8601;48.718;8.992;2023-04-23T02:12:34;12.00;99.90
16970;DHT22;8601;48.718;8.992;2023-04-23T02:15:03;12.00;99.90
16970;DHT22;8601;48.718;8.992;2023-04-23T02:17:31;12.00;99.90
16970;DHT22;8601;48.718;8.992;2023-04-23T02:19:58;12.00;99.90
16970;DHT22;8601;48.718;8.992;2023-04-23T02:22:24;12.00;99.90
16970;DHT22;8601;48.718;8.992;2023-04-23T02:24:53;12.00;99.90
16970;DHT22;8601;48.718;8.992;2023-04-23T02:27:20;11.90;99.90
16970;DHT22;8601;48.718;8.992;2023-04-23T02:29:48;12.00;99.90
16970;DHT22;8601;48.718;8.992;2023-04-23T02:32:16;11.90;99.90
16970;DHT22;8601;48.718;8.992;2023-04-23T02:34:43;11.90;99.90
16970;DHT22;8601;48.718;8.992;2023-04-23T02:37:10;11.90;99.90
16970;DHT22;8601;48.718;8.992;2023-04-23T02:39:38;11.90;99.90
16970;DHT22;8601;48.718;8.992;2023-04-23T02:42:05;11.80;99.90
16970;DHT22;8601;48.718;8.992;2023-04-23T02:44:32;11.80;99.90
16970;DHT22;8601;48.718;8.992;2023-04-23T02:46:59;11.80;99.90
16970;DHT22;8601;48.718;8.992;2023-04-23T02:49:28;11.90;99.90
16970;DHT22;8601;48.718;8.992;2023-04-23T02:51:55;11.80;99.90
16970;DHT22;8601;48.718;8.992;2023-04-23T02:54:21;11.80;99.90
16970;DHT22;8601;48.718;8.992;2023-04-23T02:56:49;11.80;99.90
16970;DHT22;8601;48.718;8.992;2023-04-23T02:59:16;11.80;99.90
16970;DHT22;8601;48.718;8.992;2023-04-23T03:01:43;11.80;99.90
16970;DHT22;8601;48.718;8.992;2023-04-23T03:04:10;11.80;99.90
16970;DHT22;8601;48.718;8.992;2023-04-23T03:06:39;11.80;99.90
16970;DHT22;8601;48.718;8.992;2023-04-23T03:09:06;11.90;99.90
16970;DHT22;8601;48.718;8.992;2023-04-23T03:11:35;11.80;99.90
16970;DHT22;8601;48.718;8.992;2023-04-23T03:14:02;11.80;99.90
16970;DHT22;8601;48.718;8.992;2023-04-23T03:16:29;11.80;99.90
16970;DHT22;8601;48.718;8.992;2023-04-23T03:18:57;11.80;99.90
16970;DHT22;8601;48.718;8.992;2023-04-23T03:21:25;11.70;99.90
16970;DHT22;8601;48.718;8.992;2023-04-23T03:23:54;11.70;99.90
16970;DHT22;8601;48.718;8.992;2023-04-23T03:26:21;11.70;99.90
16970;DHT22;8601;48.718;8.992;2023-04-23T03:28:48;11.70;99.90
16970;DHT22;8601;48.718;8.992;2023-04-23T03:31:15;11.70;99.90
16970;DHT22;8601;48.718;8.992;2023-04-23T03:33:42;11.70;99.90
16970;DHT22;8601;48.718;8.992;2023-04-23T03:36:09;11.70;99.90
16970;DHT22;8601;48.718;8.992;2023-04-23T03:38:35;11.70;99.90
16970;DHT22;8601;48.718;8.992;2023-04-23T03:41:05;11.60;99.90
16970;DHT22;8601;48.718;8.992;2023-04-23T03:43:32;11.60;99.90
16970;DHT22;8601;48.718;8.992;2023-04-23T03:45:59;11.60;99.90
16970;DHT22;8601;48.718;8.992;2023-04-23T03:48:25;11.60;99.90
16970;DHT22;8601;48.718;8.992;2023-04-23T03:50:52;11.60;99.90
16970;DHT22;8601;48.718;8.992;2023-04-23T03:53:19;11.60;99.90
16970;DHT22;8601;48.718;8.992;2023-04-23T03:55:46;11.60;99.90
16970;DHT22;8601;48.718;8.992;2023-04-23T03:58:14;11.60;99.90
16970;DHT22;8601;48.718;8.992;2023-04-23T04:00:41;11.60;99.90
16970;DHT22;8601;48.718;8.992;2023-04-23T04:03:08;11.60;99.90
16970;DHT22;8601;48.718;8.992;2023-04-23T04:05:35;11.60;99.90
16970;DHT22;8601;48.718;8.992;2023-04-23T04:08:02;11.50;99.90
16970;DHT22;8601;48.718;8.992;2023-04-23T04:10:30;11.50;99.90
16970;DHT22;8601;48.718;8.992;2023-04-23T04:12:57;11.40;99.90
16970;DHT22;8601;48.718;8.992;2023-04-23T04:15:25;11.40;99.90
16970;DHT22;8601;48.718;8.992;2023-04-23T04:17:52;11.40;99.90
16970;DHT22;8601;48.718;8.992;2023-04-23T04:20:19;11.40;99.90
16970;DHT22;8601;48.718;8.992;2023-04-23T04:22:46;11.40;99.90
16970;DHT22;8601;48.718;8.992;2023-04-23T04:25:15;11.40;99.90
16970;DHT22;8601;48.718;8.992;2023-04-23T04:27:42;11.40;99.90
16970;DHT22;8601;48.718;8.992;2023-04-23T04:30:10;11.40;99.90
16970;DHT22;8601;48.718;8.992;2023-04-23T04:32:39;11.40;99.90
16970;DHT22;8601;48.718;8.992;2023-04-23T04:35:08;11.40;99.90
16970;DHT22;8601;48.718;8.992;2023-04-23T04:37:35;11.40;99.90
16970;DHT22;8601;48.718;8.992;2023-04-23T04:40:01;11.30;99.90
16970;DHT22;8601;48.718;8.992;2023-04-23T04:42:31;11.20;99.90
16970;DHT22;8601;48.718;8.992;2023-04-23T04:44:58;11.20;99.90
16970;DHT22;8601;48.718;8.992;2023-04-23T04:47:25;11.30;99.90
16970;DHT22;8601;48.718;8.992;2023-04-23T04:49:53;11.20;99.90
16970;DHT22;8601;48.718;8.992;2023-04-23T04:52:22;11.30;99.90
16970;DHT22;8601;48.718;8.992;2023-04-23T04:54:49;11.20;99.90
16970;DHT22;8601;48.718;8.992;2023-04-23T04:57:16;11.30;99.90
16970;DHT22;8601;48.718;8.992;2023-04-23T04:59:43;11.20;99.90
16970;DHT22;8601;48.718;8.992;2023-04-23T05:02:12;11.20;99.90
16970;DHT22;8601;48.718;8.992;2023-04-23T05:04:39;11.30;99.90
16970;DHT22;8601;48.718;8.992;2023-04-23T05:07:08;11.20;99.90
16970;DHT22;8601;48.718;8.992;2023-04-23T05:09:35;11.20;99.90
16970;DHT22;8601;48.718;8.992;2023-04-23T05:12:02;11.20;99.90
16970;DHT22;8601;48.718;8.992;2023-04-23T05:14:33;11.30;99.90
16970;DHT22;8601;48.718;8.992;2023-04-23T05:17:00;11.30;99.90
16970;DHT22;8601;48.718;8.992;2023-04-23T05:19:26;11.30;99.90
16970;DHT22;8601;48.718;8.992;2023-04-23T05:21:53;11.30;99.90
16970;DHT22;8601;48.718;8.992;2023-04-23T05:24:22;11.30;99.90
16970;DHT22;8601;48.718;8.992;2023-04-23T05:26:49;11.30;99.90
16970;DHT22;8601;48.718;8.992;2023-04-23T05:29:15;11.20;99.90
16970;DHT22;8601;48.718;8.992;2023-04-23T05:31:44;11.30;99.90
16970;DHT22;8601;48.718;8.992;2023-04-23T05:34:11;11.30;99.90
16970;DHT22;8601;48.718;8.992;2023-04-23T05:36:38;11.30;99.90
16970;DHT22;8601;48.718;8.992;2023-04-23T05:39:05;11.30;99.90
16970;DHT22;8601;48.718;8.992;2023-04-23T05:41:34;11.40;99.90
16970;DHT22;8601;48.718;8.992;2023-04-23T05:44:01;11.40;99.90
16970;DHT22;8601;48.718;8.992;2023-04-23T05:46:28;11.50;99.90
16970;DHT22;8601;48.718;8.992;2023-04-23T05:48:54;11.50;99.90
16970;DHT22;8601;48.718;8.992;2023-04-23T05:51:21;11.50;99.90
16970;DHT22;8601;48.718;8.992;2023-04-23T05:53:48;11.60;99.90
16970;DHT22;8601;48.718;8.992;2023-04-23T05:56:15;11.60;99.90
16970;DHT22;8601;48.718;8.992;2023-04-23T05:58:45;11.70;99.90
16970;DHT22;8601;48.718;8.992;2023-04-23T06:01:12;11.70;99.90
16970;DHT22;8601;48.718;8.992;2023-04-23T06:03:39;11.70;99.90
16970;DHT22;8601;48.718;8.992;2023-04-23T06:06:09;11.80;99.90
16970;DHT22;8601;48.718;8.992;2023-04-23T06:08:36;11.70;99.90
16970;DHT22;8601;48.718;8.992;2023-04-23T06:11:04;11.80;99.90
16970;DHT22;8601;48.718;8.992;2023-04-23T06:13:31;11.80;99.90
16970;DHT22;8601;48.718;8.992;2023-04-23T06:15:59;11.80;99.90
16970;DHT22;8601;48.718;8.992;2023-04-23T06:18:26;11.90;99.90
16970;DHT22;8601;48.718;8.992;2023-04-23T06:20:54;11.90;99.90
16970;DHT22;8601;48.718;8.992;2023-04-23T06:23:21;11.90;99.90
16970;DHT22;8601;48.718;8.992;2023-04-23T06:25:49;12.00;99.90
16970;DHT22;8601;48.718;8.992;2023-04-23T06:28:15;12.00;99.90
16970;DHT22;8601;48.718;8.992;2023-04-23T06:30:43;11.90;99.90
16970;DHT22;8601;48.718;8.992;2023-04-23T06:33:11;11.90;99.90
16970;DHT22;8601;48.718;8.992;2023-04-23T06:35:38;12.00;99.90
16970;DHT22;8601;48.718;8.992;2023-04-23T06:38:05;12.00;99.90
16970;DHT22;8601;48.718;8.992;2023-04-23T06:40:32;11.90;99.90
16970;DHT22;8601;48.718;8.992;2023-04-23T06:42:59;11.90;99.90
16970;DHT22;8601;48.718;8.992;2023-04-23T06:45:29;12.00;99.90
16970;DHT22;8601;48.718;8.992;2023-04-23T06:47:57;12.00;99.90
16970;DHT22;8601;48.718;8.992;2023-04-23T06:50:26;12.00;99.90
16970;DHT22;8601;48.718;8.992;2023-04-23T06:52:53;12.00;99.90
16970;DHT22;8601;48.718;8.992;2023-04-23T06:55:20;12.00;99.90
16970;DHT22;8601;48.718;8.992;2023-04-23T06:57:50;12.00;99.90
16970;DHT22;8601;48.718;8.992;2023-04-23T07:00:18;12.00;99.90
16970;DHT22;8601;48.718;8.992;2023-04-23T07:02:45;12.20;99.90
16970;DHT22;8601;48.718;8.992;2023-04-23T07:05:12;12.20;99.90
16970;DHT22;8601;48.718;8.992;2023-04-23T07:07:40;12.30;99.90
16970;DHT22;8601;48.718;8.992;2023-04-23T07:10:09;12.30;99.90
16970;DHT22;8601;48.718;8.992;2023-04-23T07:12:36;12.30;99.90
16970;DHT22;8601;48.718;8.992;2023-04-23T07:15:04;12.30;99.90
16970;DHT22;8601;48.718;8.992;2023-04-23T07:17:31;12.30;99.90
16970;DHT22;8601;48.718;8.992;2023-04-23T07:19:58;12.30;99.90
16970;DHT22;8601;48.718;8.992;2023-04-23T07:22:28;12.40;99.90
16970;DHT22;8601;48.718;8.992;2023-04-23T07:24:56;12.40;99.90
16970;DHT22;8601;48.718;8.992;2023-04-23T07:27:24;12.40;99.90
16970;DHT22;8601;48.718;8.992;2023-04-23T07:29:51;12.50;99.90
16970;DHT22;8601;48.718;8.992;2023-04-23T07:32:18;12.60;99.90
16970;DHT22;8601;48.718;8.992;2023-04-23T07:34:48;12.60;99.90
16970;DHT22;8601;48.718;8.992;2023-04-23T07:37:14;12.80;99.90
16970;DHT22;8601;48.718;8.992;2023-04-23T07:39:41;13.00;99.90
16970;DHT22;8601;48.718;8.992;2023-04-23T07:42:09;12.90;99.90
16970;DHT22;8601;48.718;8.992;2023-04-23T07:44:37;12.80;99.90
16970;DHT22;8601;48.718;8.992;2023-04-23T07:47:05;12.90;99.90
16970;DHT22;8601;48.718;8.992;2023-04-23T07:49:32;12.90;99.90
16970;DHT22;8601;48.718;8.992;2023-04-23T07:51:59;12.80;99.90
16970;DHT22;8601;48.718;8.992;2023-04-23T07:54:25;12.90;99.90
16970;DHT22;8601;48.718;8.992;2023-04-23T07:56:52;13.00;99.90
16970;DHT22;8601;48.718;8.992;2023-04-23T07:59:21;13.10;99.90
16970;DHT22;8601;48.718;8.992;2023-04-23T08:01:49;13.10;99.90
16970;DHT22;8601;48.718;8.992;2023-04-23T08:04:16;13.10;99.90
16970;DHT22;8601;48.718;8.992;2023-04-23T08:06:42;13.20;99.90
16970;DHT22;8601;48.718;8.992;2023-04-23T08:09:09;13.20;99.90
16970;DHT22;8601;48.718;8.992;2023-04-23T08:11:36;13.30;99.90
16970;DHT22;8601;48.718;8.992;2023-04-23T08:14:03;13.40;99.90
16970;DHT22;8601;48.718;8.992;2023-04-23T08:16:31;13.20;99.90
16970;DHT22;8601;48.718;8.992;2023-04-23T08:18:59;13.30;99.90
16970;DHT22;8601;48.718;8.992;2023-04-23T08:21:26;13.30;99.90
16970;DHT22;8601;48.718;8.992;2023-04-23T08:23:53;13.40;99.90
16970;DHT22;8601;48.718;8.992;2023-04-23T08:26:20;13.50;99.90
16970;DHT22;8601;48.718;8.992;2023-04-23T08:28:48;13.70;99.90
16970;DHT22;8601;48.718;8.992;2023-04-23T08:31:15;13.60;99.90
16970;DHT22;8601;48.718;8.992;2023-04-23T08:33:44;13.70;99.90
16970;DHT22;8601;48.718;8.992;2023-04-23T08:36:11;13.80;99.90
16970;DHT22;8601;48.718;8.992;2023-04-23T08:38:39;14.00;99.90
16970;DHT22;8601;48.718;8.992;2023-04-23T08:41:09;14.30;99.90
16970;DHT22;8601;48.718;8.992;2023-04-23T08:43:41;14.50;99.90
16970;DHT22;8601;48.718;8.992;2023-04-23T08:46:11;14.60;99.60
16970;DHT22;8601;48.718;8.992;2023-04-23T08:48:39;14.50;99.00
16970;DHT22;8601;48.718;8.992;2023-04-23T08:51:09;14.60;98.10
16970;DHT22;8601;48.718;8.992;2023-04-23T08:53:43;14.60;97.80
16970;DHT22;8601;48.718;8.992;2023-04-23T08:56:12;14.50;97.40
16970;DHT22;8601;48.718;8.992;2023-04-23T08:58:40;14.70;98.20
16970;DHT22;8601;48.718;8.992;2023-04-23T09:01:08;14.70;96.60
16970;DHT22;8601;48.718;8.992;2023-04-23T09:03:35;14.90;95.10
16970;DHT22;8601;48.718;8.992;2023-04-23T09:06:03;15.00;93.30
16970;DHT22;8601;48.718;8.992;2023-04-23T09:08:32;15.40;94.10
16970;DHT22;8601;48.718;8.992;2023-04-23T09:11:00;15.70;93.50
16970;DHT22;8601;48.718;8.992;2023-04-23T09:13:29;15.90;91.30
16970;DHT22;8601;48.718;8.992;2023-04-23T09:15:57;16.00;90.80
16970;DHT22;8601;48.718;8.992;2023-04-23T09:18:24;16.10;91.50
16970;DHT22;8601;48.718;8.992;2023-04-23T09:20:51;16.50;90.20
16970;DHT22;8601;48.718;8.992;2023-04-23T09:23:21;16.60;84.60
16970;DHT22;8601;48.718;8.992;2023-04-23T09:25:50;16.70;82.60
16970;DHT22;8601;48.718;8.992;2023-04-23T09:28:17;16.90;85.80
16970;DHT22;8601;48.718;8.992;2023-04-23T09:30:45;17.10;87.90
16970;DHT22;8601;48.718;8.992;2023-04-23T09:33:16;17.40;88.30
16970;DHT22;8601;48.718;8.992;2023-04-23T09:35:43;17.60;87.20
16970;DHT22;8601;48.718;8.992;2023-04-23T09:38:12;17.80;86.50
16970;DHT22;8601;48.718;8.992;2023-04-23T09:40:40;17.70;85.10
16970;DHT22;8601;48.718;8.992;2023-04-23T09:43:10;17.80;85.70
16970;DHT22;8601;48.718;8.992;2023-04-23T09:45:46;18.10;83.90
16970;DHT22;8601;48.718;8.992;2023-04-23T09:48:13;18.00;79.10
16970;DHT22;8601;48.718;8.992;2023-04-23T09:50:40;18.00;82.30
16970;DHT22;8601;48.718;8.992;2023-04-23T09:53:08;18.10;80.00
16970;DHT22;8601;48.718;8.992;2023-04-23T09:55:37;18.40;79.40
16970;DHT22;8601;48.718;8.992;2023-04-23T09:58:10;18.00;68.70
16970;DHT22;8601;48.718;8.992;2023-04-23T10:00:41;17.90;68.80
16970;DHT22;8601;48.718;8.992;2023-04-23T10:03:08;18.20;73.10
16970;DHT22;8601;48.718;8.992;2023-04-23T10:05:40;18.50;71.80
16970;DHT22;8601;48.718;8.992;2023-04-23T10:08:07;18.10;71.50
16970;DHT22;8601;48.718;8.992;2023-04-23T10:10:34;17.80;67.30
16970;DHT22;8601;48.718;8.992;2023-04-23T10:13:01;17.60;68.00
16970;DHT22;8601;48.718;8.992;2023-04-23T10:15:29;17.60;69.10
16970;DHT22;8601;48.718;8.992;2023-04-23T10:18:00;17.20;69.80
16970;DHT22;8601;48.718;8.992;2023-04-23T10:20:29;17.00;72.70
16970;DHT22;8601;48.718;8.992;2023-04-23T10:22:56;17.10;76.30
16970;DHT22;8601;48.718;8.992;2023-04-23T10:25:26;17.10;71.50
16970;DHT22;8601;48.718;8.992;2023-04-23T10:27:54;17.00;72.00
16970;DHT22;8601;48.718;8.992;2023-04-23T10:30:21;17.10;72.00
16970;DHT22;8601;48.718;8.992;2023-04-23T10:32:49;17.30;71.10
16970;DHT22;8601;48.718;8.992;2023-04-23T10:35:18;17.10;70.10
16970;DHT22;8601;48.718;8.992;2023-04-23T10:37:45;17.30;71.10
16970;DHT22;8601;48.718;8.992;2023-04-23T10:40:15;17.50;69.30
16970;DHT22;8601;48.718;8.992;2023-04-23T10:42:46;17.40;69.20
16970;DHT22;8601;48.718;8.992;2023-04-23T10:45:16;17.50;72.70
16970;DHT22;8601;48.718;8.992;2023-04-23T10:47:44;17.60;71.90
16970;DHT22;8601;48.718;8.992;2023-04-23T10:50:23;17.90;73.30
16970;DHT22;8601;48.718;8.992;2023-04-23T10:52:50;18.20;69.40
16970;DHT22;8601;48.718;8.992;2023-04-23T10:55:22;18.40;72.10
16970;DHT22;8601;48.718;8.992;2023-04-23T10:58:00;18.20;72.50
16970;DHT22;8601;48.718;8.992;2023-04-23T11:00:28;18.10;66.80
16970;DHT22;8601;48.718;8.992;2023-04-23T11:02:56;18.20;70.80
16970;DHT22;8601;48.718;8.992;2023-04-23T11:05:24;18.10;69.90
16970;DHT22;8601;48.718;8.992;2023-04-23T11:08:04;18.00;69.30
16970;DHT22;8601;48.718;8.992;2023-04-23T11:10:32;17.80;66.80
16970;DHT22;8601;48.718;8.992;2023-04-23T11:13:24;17.60;66.70
16970;DHT22;8601;48.718;8.992;2023-04-23T11:16:13;17.50;65.70
16970;DHT22;8601;48.718;8.992;2023-04-23T11:18:56;17.50;69.20
16970;DHT22;8601;48.718;8.992;2023-04-23T11:21:58;17.40;69.70
16970;DHT22;8601;48.718;8.992;2023-04-23T11:24:27;17.50;69.60
16970;DHT22;8601;48.718;8.992;2023-04-23T11:26:55;17.80;73.10
16970;DHT22;8601;48.718;8.992;2023-04-23T11:29:23;18.00;69.30
16970;DHT22;8601;48.718;8.992;2023-04-23T11:31:50;18.20;68.90
16970;DHT22;8601;48.718;8.992;2023-04-23T11:34:19;18.30;71.70
16970;DHT22;8601;48.718;8.992;2023-04-23T11:36:48;18.20;66.80
16970;DHT22;8601;48.718;8.992;2023-04-23T11:39:18;18.20;67.60
16970;DHT22;8601;48.718;8.992;2023-04-23T11:41:45;18.00;67.20
16970;DHT22;8601;48.718;8.992;2023-04-23T11:44:14;18.00;71.10
16970;DHT22;8601;48.718;8.992;2023-04-23T11:46:41;18.00;67.10
16970;DHT22;8601;48.718;8.992;2023-04-23T11:49:08;18.00;68.60
16970;DHT22;8601;48.718;8.992;2023-04-23T11:51:40;18.30;71.10
16970;DHT22;8601;48.718;8.992;2023-04-23T11:54:08;18.30;72.60
16970;DHT22;8601;48.718;8.992;2023-04-23T11:56:38;18.20;68.00
16970;DHT22;8601;48.718;8.992;2023-04-23T11:59:05;18.30;69.70
16970;DHT22;8601;48.718;8.992;2023-04-23T12:01:46;18.20;66.80
16970;DHT22;8601;48.718;8.992;2023-04-23T12:04:15;18.30;69.40
16970;DHT22;8601;48.718;8.992;2023-04-23T12:06:44;18.50;68.80
16970;DHT22;8601;48.718;8.992;2023-04-23T12:09:12;18.70;66.70
16970;DHT22;8601;48.718;8.992;2023-04-23T12:11:42;18.70;66.40
16970;DHT22;8601;48.718;8.992;2023-04-23T12:14:11;18.70;65.80
16970;DHT22;8601;48.718;8.992;2023-04-23T12:16:40;19.10;66.60
16970;DHT22;8601;48.718;8.992;2023-04-23T12:19:08;19.00;64.80
16970;DHT22;8601;48.718;8.992;2023-04-23T12:21:46;18.90;65.40
16970;DHT22;8601;48.718;8.992;2023-04-23T12:24:13;18.90;66.30
16970;DHT22;8601;48.718;8.992;2023-04-23T12:26:42;18.80;64.20
16970;DHT22;8601;48.718;8.992;2023-04-23T12:29:11;19.00;65.10
16970;DHT22;8601;48.718;8.992;2023-04-23T12:31:38;19.10;63.70
16970;DHT22;8601;48.718;8.992;2023-04-23T12:34:06;19.50;64.10
16970;DHT22;8601;48.718;8.992;2023-04-23T12:36:35;19.70;64.00
16970;DHT22;8601;48.718;8.992;2023-04-23T12:39:22;19.60;61.60
16970;DHT22;8601;48.718;8.992;2023-04-23T12:41:52;19.90;61.70
16970;DHT22;8601;48.718;8.992;2023-04-23T12:44:20;20.10;61.60
16970;DHT22;8601;48.718;8.992;2023-04-23T12:46:54;19.90;61.00
16970;DHT22;8601;48.718;8.992;2023-04-23T12:49:21;19.70;59.30
16970;DHT22;8601;48.718;8.992;2023-04-23T12:51:48;19.70;60.70
16970;DHT22;8601;48.718;8.992;2023-04-23T12:54:17;19.70;61.10
16970;DHT22;8601;48.718;8.992;2023-04-23T12:56:44;19.70;62.20
16970;DHT22;8601;48.718;8.992;2023-04-23T12:59:12;19.80;63.00
16970;DHT22;8601;48.718;8.992;2023-04-23T13:01:39;19.80;61.70
16970;DHT22;8601;48.718;8.992;2023-04-23T13:04:06;19.80;63.80
16970;DHT22;8601;48.718;8.992;2023-04-23T13:06:33;19.60;60.50
16970;DHT22;8601;48.718;8.992;2023-04-23T13:09:00;19.90;62.30
16970;DHT22;8601;48.718;8.992;2023-04-23T13:11:29;19.80;61.10
16970;DHT22;8601;48.718;8.992;2023-04-23T13:13:56;19.90;60.90
16970;DHT22;8601;48.718;8.992;2023-04-23T13:16:24;20.10;61.00
16970;DHT22;8601;48.718;8.992;2023-04-23T13:18:52;20.40;60.80
16970;DHT22;8601;48.718;8.992;2023-04-23T13:21:19;20.40;58.60
16970;DHT22;8601;48.718;8.992;2023-04-23T13:23:45;20.40;57.50
16970;DHT22;8601;48.718;8.992;2023-04-23T13:26:13;20.20;57.70
16970;DHT22;8601;48.718;8.992;2023-04-23T13:28:42;20.20;58.50
16970;DHT22;8601;48.718;8.992;2023-04-23T13:31:09;20.10;59.30
16970;DHT22;8601;48.718;8.992;2023-04-23T13:33:38;19.70;59.00
16970;DHT22;8601;48.718;8.992;2023-04-23T13:36:05;19.80;60.80
16970;DHT22;8601;48.718;8.992;2023-04-23T13:38:33;19.70;59.60
16970;DHT22;8601;48.718;8.992;2023-04-23T13:41:00;19.90;60.80
16970;DHT22;8601;48.718;8.992;2023-04-23T13:43:27;20.00;58.80
16970;DHT22;8601;48.718;8.992;2023-04-23T13:45:54;20.10;57.30
16970;DHT22;8601;48.718;8.992;2023-04-23T13:48:21;19.90;54.00
16970;DHT22;8601;48.718;8.992;2023-04-23T13:50:54;19.70;55.50
16970;DHT22;8601;48.718;8.992;2023-04-23T13:53:21;19.90;55.60
16970;DHT22;8601;48.718;8.992;2023-04-23T13:55:48;19.80;54.50
16970;DHT22;8601;48.718;8.992;2023-04-23T13:58:15;19.80;53.90
16970;DHT22;8601;48.718;8.992;2023-04-23T14:00:42;19.70;55.80
16970;DHT22;8601;48.718;8.992;2023-04-23T14:03:09;19.50;55.60
16970;DHT22;8601;48.718;8.992;2023-04-23T14:05:36;19.40;54.10
16970;DHT22;8601;48.718;8.992;2023-04-23T14:08:05;19.60;56.50
16970;DHT22;8601;48.718;8.992;2023-04-23T14:10:32;19.80;55.00
16970;DHT22;8601;48.718;8.992;2023-04-23T14:13:00;19.70;54.50
16970;DHT22;8601;48.718;8.992;2023-04-23T14:15:28;19.60;55.10
16970;DHT22;8601;48.718;8.992;2023-04-23T14:17:54;19.60;54.80
16970;DHT22;8601;48.718;8.992;2023-04-23T14:20:22;19.60;52.90
16970;DHT22;8601;48.718;8.992;2023-04-23T14:22:50;19.70;53.30
16970;DHT22;8601;48.718;8.992;2023-04-23T14:25:29;19.90;56.30
16970;DHT22;8601;48.718;8.992;2023-04-23T14:28:02;20.00;53.90
16970;DHT22;8601;48.718;8.992;2023-04-23T14:30:39;20.00;54.40
16970;DHT22;8601;48.718;8.992;2023-04-23T14:33:06;19.80;53.20
16970;DHT22;8601;48.718;8.992;2023-04-23T14:35:33;19.70;55.20
16970;DHT22;8601;48.718;8.992;2023-04-23T14:38:00;19.60;54.90
16970;DHT22;8601;48.718;8.992;2023-04-23T14:40:29;19.40;55.30
16970;DHT22;8601;48.718;8.992;2023-04-23T14:42:56;19.30;56.00
16970;DHT22;8601;48.718;8.992;2023-04-23T14:45:23;19.10;56.30
16970;DHT22;8601;48.718;8.992;2023-04-23T14:47:51;19.00;55.80
16970;DHT22;8601;48.718;8.992;2023-04-23T14:50:18;18.90;56.50
16970;DHT22;8601;48.718;8.992;2023-04-23T14:52:47;18.80;55.50
16970;DHT22;8601;48.718;8.992;2023-04-23T14:55:14;18.80;56.00
16970;DHT22;8601;48.718;8.992;2023-04-23T14:57:43;18.80;56.20
16970;DHT22;8601;48.718;8.992;2023-04-23T15:00:10;18.80;56.90
16970;DHT22;8601;48.718;8.992;2023-04-23T15:02:40;18.80;56.50
16970;DHT22;8601;48.718;8.992;2023-04-23T15:05:07;18.80;57.10
16970;DHT22;8601;48.718;8.992;2023-04-23T15:07:35;18.70;56.70
16970;DHT22;8601;48.718;8.992;2023-04-23T15:10:02;18.70;58.00
16970;DHT22;8601;48.718;8.992;2023-04-23T15:12:52;18.60;57.40
16970;DHT22;8601;48.718;8.992;2023-04-23T15:15:25;18.40;57.70
16970;DHT22;8601;48.718;8.992;2023-04-23T15:17:53;18.50;58.30
16970;DHT22;8601;48.718;8.992;2023-04-23T15:20:20;18.40;59.10
16970;DHT22;8601;48.718;8.992;2023-04-23T15:22:48;18.40;61.30
16970;DHT22;8601;48.718;8.992;2023-04-23T15:25:15;18.40;63.80
16970;DHT22;8601;48.718;8.992;2023-04-23T15:27:43;18.40;64.80
16970;DHT22;8601;48.718;8.992;2023-04-23T15:30:11;18.40;66.40
16970;DHT22;8601;48.718;8.992;2023-04-23T15:32:38;17.90;69.90
16970;DHT22;8601;48.718;8.992;2023-04-23T15:35:05;17.60;75.40
16970;DHT22;8601;48.718;8.992;2023-04-23T15:37:34;17.40;77.10
16970;DHT22;8601;48.718;8.992;2023-04-23T15:40:02;17.20;76.90
16970;DHT22;8601;48.718;8.992;2023-04-23T15:42:29;17.10;76.80
16970;DHT22;8601;48.718;8.992;2023-04-23T15:44:57;17.20;76.20
16970;DHT22;8601;48.718;8.992;2023-04-23T15:47:25;17.20;76.00
16970;DHT22;8601;48.718;8.992;2023-04-23T15:49:52;17.40;74.50
16970;DHT22;8601;48.718;8.992;2023-04-23T15:52:19;17.40;75.20